createdAt,value
2023-02-18T00:00:48.294Z,2.7
2023-02-18T00:05:48.855Z,2.7
2023-02-18T00:10:48.314Z,2.7
2023-02-18T00:15:48.859Z,2.2
2023-02-18T00:20:48.460Z,2.2
2023-02-18T00:25:48.906Z,2.2
2023-02-18T00:30:48.823Z,2.2
2023-02-18T00:35:48.850Z,2.9
2023-02-18T00:40:48.509Z,2.9
2023-02-18T00:45:49.027Z,2
2023-02-18T00:50:48.595Z,2
2023-02-18T00:55:49.154Z,1.9
2023-02-18T01:00:48.749Z,1.9
2023-02-18T01:05:49.181Z,1.8
2023-02-18T01:10:48.612Z,1.8
2023-02-18T01:15:48.414Z,1.8
2023-02-18T01:20:48.713Z,1.8
2023-02-18T01:25:49.022Z,1.8
2023-02-18T01:30:48.991Z,1.8
2023-02-18T01:35:49.135Z,1.8
2023-02-18T01:40:48.461Z,1.8
2023-02-18T01:45:48.912Z,1.8
2023-02-18T01:50:49.283Z,1.8
2023-02-18T01:55:48.349Z,1.8
2023-02-18T11:25:49.163Z,0
2023-02-18T11:30:49.352Z,0
2023-02-18T11:35:49.436Z,0
2023-02-18T11:40:48.757Z,0
2023-02-18T11:45:48.913Z,1
2023-02-18T11:50:49.082Z,1
2023-02-18T11:55:49.190Z,1.8
2023-02-18T12:00:49.501Z,1.8
2023-02-18T12:05:48.672Z,3.3
2023-02-18T12:10:48.996Z,3.3
2023-02-18T12:15:49.390Z,3.1
2023-02-18T12:20:48.796Z,3.1
2023-02-18T12:25:48.915Z,3.8
2023-02-18T12:30:49.010Z,3.8
2023-02-18T12:35:49.270Z,3.7
2023-02-18T12:40:48.676Z,3.7
2023-02-18T12:45:48.974Z,3.7
2023-02-18T12:50:49.191Z,3.7
2023-02-18T12:55:49.243Z,3.1
2023-02-18T13:00:49.449Z,3.1
2023-02-18T13:05:48.573Z,4
2023-02-18T13:10:48.799Z,4
2023-02-18T13:15:49.068Z,3.6
2023-02-18T13:20:49.296Z,3.6
2023-02-18T13:25:49.359Z,3.6
2023-02-18T13:30:49.716Z,3.6
2023-02-18T13:35:48.981Z,3.6
2023-02-18T13:40:49.289Z,3.6
2023-02-18T13:45:49.534Z,3.1
2023-02-18T13:50:48.783Z,3.1
2023-02-18T13:55:49.028Z,3
2023-02-18T14:00:49.327Z,3
2023-02-18T14:05:49.580Z,3.1
2023-02-18T14:10:48.720Z,3.1
2023-02-18T14:15:49.119Z,3.1
2023-02-18T14:20:49.292Z,3.1
2023-02-18T14:25:49.338Z,3.1
2023-02-18T14:30:49.952Z,3.1
2023-02-18T14:35:49.151Z,2.7
2023-02-18T14:40:49.434Z,2.7
2023-02-18T14:45:48.683Z,1.8
2023-02-18T14:50:50.580Z,1.8
2023-02-18T14:55:48.887Z,1.3
2023-02-18T15:00:49.328Z,1.3
2023-02-18T15:05:49.273Z,0.9
2023-02-18T15:10:49.653Z,0.9
2023-02-18T15:15:49.586Z,0.9
2023-02-18T15:20:49.410Z,0.9
2023-02-18T15:25:49.011Z,0.1
2023-02-18T15:30:48.982Z,0.1
2023-02-18T15:35:48.674Z,0.9
2023-02-18T15:40:49.589Z,0.9
2023-02-18T16:00:49.359Z,0.9
2023-02-18T16:05:49.642Z,0.9
2023-02-18T16:10:49.166Z,0.9
2023-02-18T16:15:49.026Z,0.9
